Página principal
METAR-TAF:

METAR-TAF

Aeroportos :

Copenhaga, Dinamarca

Aeroporto de Copenhaga

latitude: 55-37N, longitude: 012-39E, altura: 5 m

Observação actual do tempo

O boletim foi feito há 41 minutos, às 12:50 UTC
Vento 3 kt de su-sudeste
Temperatura 2°C
Humidade 75%
Pressão 1027 hPa
Visibilidade 10 km ou mais
Poucas nuvensa uma altura de 2500 ft
Nuvens fragmentadasa uma altura de 3300 ft

METAR: EKCH 211250Z 15003KT 9999 FEW025 BKN033 02/M02 Q1027 NOSIG

Hora: 14:31 (13:31 UTC)

Previsão

O boletim foi feito há 26 horas e 38 minutos, às 10:53 UTC
Previsão válida de 20 às 12 UTC a 21 às 12 UTC
Vento 8 kt de este
Visibilidade 10 km ou mais
Nuvens fragmentadasa uma altura de 3000 ft
Temporariamente
de 20 às 19 UTC a 21 às 12 UTC
Visibilidade: 4000 m
Nuvens fragmentadasa uma altura de 1200 ft
neblina

TAF: EKCH 201053Z 2012/2112 09008KT 9999 BKN030 TEMPO 2019/2112 4000 BR BKN012

Observações e previsões do tempo de mais de 4000 aeroportos (mensagens METAR e TAF).

As estações disponíveis são os pontos amarelos e vermelhos sobre o mapa.

Mova o rato sobre o mapa para ver o nome da estação.

Depois clique no ponto para visualizar as observações e previsões meteorológicas.

Para alterar o mapa : clique nos botões verdes com uma cruz preta para aumentar o zoom; no botão verde com uma pitada de zoom; ou nas setas verdes para mapas adjacentes.


METAR-TAF: